Time;durP1;ratioP1;P1;durP2;ratioP2;P2;SDS_P1;SDS_P2;PMS_P1;PMS_P2;Temp;Humidity;BMP_temperature;BMP_pressure;BME280_temperature;BME280_humidity;BME280_pressure;Samples;Min_cycle;Max_cycle;Signal;HPM_P1;HPM_P2
2022/12/20 00:01:15;;;;;;;6.13;2.85;;;12.40;99.90;;;;;;5071208;28;20511;-85
2022/12/20 00:03:40;;;;;;;8.33;2.93;;;12.40;99.90;;;;;;5071410;28;20028;-85
2022/12/20 00:06:09;;;;;;;9.07;3.58;;;12.50;99.90;;;;;;5071031;28;20357;-85
2022/12/20 00:08:36;;;;;;;6.10;3.00;;;12.50;99.90;;;;;;5074977;28;20469;-85
2022/12/20 00:11:04;;;;;;;5.70;3.03;;;12.50;99.90;;;;;;5091013;28;20058;-85
2022/12/20 00:13:31;;;;;;;6.88;2.70;;;12.40;99.90;;;;;;5090725;28;20069;-85
2022/12/20 00:16:07;;;;;;;7.80;3.20;;;12.50;99.90;;;;;;5091417;28;20024;-85
2022/12/20 00:18:33;;;;;;;6.32;2.92;;;12.40;99.90;;;;;;5091375;28;20032;-85
2022/12/20 00:21:00;;;;;;;5.32;2.85;;;12.40;99.90;;;;;;5090811;28;20099;-85
2022/12/20 00:23:28;;;;;;;4.50;2.60;;;12.30;99.90;;;;;;5091095;28;20020;-85
2022/12/20 00:26:19;;;;;;;4.78;2.50;;;12.30;99.90;;;;;;5090374;28;20149;-84
2022/12/20 00:28:45;;;;;;;5.77;2.57;;;12.20;99.90;;;;;;5090246;28;20043;-85
2022/12/20 00:31:12;;;;;;;5.68;2.70;;;12.20;99.90;;;;;;5082343;28;20243;-84
2022/12/20 00:33:39;;;;;;;5.30;2.88;;;12.20;99.90;;;;;;5070647;28;20093;-85
2022/12/20 00:36:06;;;;;;;7.80;2.88;;;12.20;99.90;;;;;;5073958;28;20020;-85
2022/12/20 00:38:33;;;;;;;6.82;2.92;;;12.20;99.90;;;;;;5073479;28;20028;-85
2022/12/20 00:41:19;;;;;;;7.07;2.75;;;12.20;99.90;;;;;;5070575;28;20651;-85
2022/12/20 00:43:45;;;;;;;6.05;2.80;;;12.10;99.90;;;;;;5070559;28;20029;-85
2022/12/20 00:46:12;;;;;;;7.38;2.58;;;12.10;99.90;;;;;;5070457;28;20401;-85
2022/12/20 00:48:38;;;;;;;6.05;3.17;;;12.20;99.90;;;;;;5071185;28;20024;-86
2022/12/20 00:51:10;;;;;;;10.80;3.05;;;12.30;99.90;;;;;;5070570;28;20086;-85
2022/12/20 00:53:37;;;;;;;9.32;2.90;;;12.20;99.90;;;;;;5070470;28;20086;-86
2022/12/20 00:56:04;;;;;;;7.80;2.88;;;12.20;99.90;;;;;;5070717;28;20020;-85
2022/12/20 00:58:32;;;;;;;9.57;2.85;;;12.10;99.90;;;;;;5070444;28;20501;-85
2022/12/20 01:00:57;;;;;;;9.30;3.00;;;12.20;99.90;;;;;;5071039;28;20032;-85
2022/12/20 01:03:24;;;;;;;12.35;3.53;;;12.20;99.90;;;;;;5071952;28;20494;-85
2022/12/20 01:05:59;;;;;;;8.15;3.58;;;12.20;99.90;;;;;;5090519;28;20027;-86
2022/12/20 01:08:26;;;;;;;6.28;2.60;;;12.20;99.90;;;;;;5070976;28;20032;-85
2022/12/20 01:11:22;;;;;;;6.60;2.97;;;12.20;99.90;;;;;;5070415;28;20028;-85
2022/12/20 01:13:50;;;;;;;6.60;2.92;;;12.10;99.90;;;;;;5069340;28;20063;-86
2022/12/20 01:16:18;;;;;;;6.40;2.90;;;12.20;99.90;;;;;;5085241;28;20028;-86
2022/12/20 01:18:44;;;;;;;7.97;3.55;;;12.20;99.90;;;;;;5090539;28;20031;-86
2022/12/20 01:21:15;;;;;;;6.70;2.50;;;12.10;99.90;;;;;;5090608;28;20485;-86
2022/12/20 01:23:41;;;;;;;4.82;2.38;;;12.10;99.90;;;;;;5092381;28;20505;-86
2022/12/20 01:26:11;;;;;;;5.72;2.53;;;12.10;99.90;;;;;;5091636;28;20032;-86
2022/12/20 01:28:39;;;;;;;6.70;2.50;;;12.10;99.90;;;;;;5074237;28;20029;-85
2022/12/20 01:31:07;;;;;;;5.25;2.58;;;12.10;99.90;;;;;;5074164;28;20028;-85
2022/12/20 01:33:33;;;;;;;6.05;2.55;;;12.10;99.90;;;;;;5073919;28;20020;-86
2022/12/20 01:36:04;;;;;;;13.15;3.35;;;12.10;99.90;;;;;;5074292;28;20020;-86
2022/12/20 01:38:30;;;;;;;6.32;2.67;;;12.10;99.90;;;;;;5074011;28;20025;-86
2022/12/20 01:40:57;;;;;;;7.90;2.83;;;12.20;99.90;;;;;;5078158;28;20077;-86
2022/12/20 01:43:24;;;;;;;4.95;2.50;;;12.10;99.90;;;;;;5093612;28;20024;-86
2022/12/20 01:45:50;;;;;;;6.07;2.78;;;12.10;99.90;;;;;;5076338;28;20039;-86
2022/12/20 01:48:21;;;;;;;8.20;2.83;;;12.10;99.90;;;;;;5074113;28;20021;-86
2022/12/20 01:50:47;;;;;;;5.47;2.47;;;12.10;99.90;;;;;;5073610;28;20470;-85
2022/12/20 01:53:15;;;;;;;7.53;2.92;;;12.10;99.90;;;;;;5073907;28;20020;-85
2022/12/20 01:55:41;;;;;;;7.63;2.65;;;12.10;99.90;;;;;;5087442;28;20028;-85
2022/12/20 01:58:11;;;;;;;7.22;2.72;;;12.20;99.90;;;;;;5073713;28;20078;-85
2022/12/20 02:00:37;;;;;;;7.25;2.75;;;12.20;99.90;;;;;;5073834;28;20116;-85
2022/12/20 02:03:08;;;;;;;4.68;2.40;;;12.20;99.90;;;;;;5084962;28;20034;-85
2022/12/20 02:05:36;;;;;;;8.52;3.00;;;12.20;99.90;;;;;;5073899;28;20037;-86
2022/12/20 02:08:03;;;;;;;4.55;2.40;;;12.10;99.90;;;;;;5073654;28;20059;-86
2022/12/20 02:10:41;;;;;;;5.18;2.78;;;12.10;99.90;;;;;;5073763;28;20028;-86
2022/12/20 02:13:23;;;;;;;8.13;3.03;;;12.10;99.90;;;;;;5073357;28;20025;-85
2022/12/20 02:15:54;;;;;;;9.18;3.25;;;12.10;99.90;;;;;;5073332;28;20087;-86
2022/12/20 02:18:40;;;;;;;5.70;2.35;;;12.20;99.90;;;;;;5073029;28;20032;-86
2022/12/20 02:21:22;;;;;;;4.88;2.30;;;12.10;99.90;;;;;;5073519;28;20107;-86
2022/12/20 02:24:22;;;;;;;6.05;2.70;;;12.00;99.90;;;;;;5073735;28;20025;-86
2022/12/20 02:27:08;;;;;;;5.82;2.22;;;12.00;99.90;;;;;;5060703;28;20059;-85
2022/12/20 02:29:34;;;;;;;7.60;2.75;;;12.00;99.90;;;;;;5072154;28;20158;-85
2022/12/20 02:32:18;;;;;;;5.25;2.50;;;12.00;99.90;;;;;;5073155;28;20107;-86
2022/12/20 02:34:44;;;;;;;6.45;2.35;;;12.00;99.90;;;;;;5086388;28;20104;-86
2022/12/20 02:37:10;;;;;;;6.10;2.40;;;12.00;99.90;;;;;;5073191;28;20055;-85
2022/12/20 02:39:38;;;;;;;6.13;2.40;;;11.90;99.90;;;;;;5073071;28;20489;-85
2022/12/20 02:42:11;;;;;;;7.15;3.20;;;12.00;99.90;;;;;;5072602;28;20043;-85
2022/12/20 02:47:36;;;;;;;4.97;2.55;;;11.90;99.90;;;;;;5073169;28;20066;-85
2022/12/20 02:50:03;;;;;;;6.63;3.00;;;12.00;99.90;;;;;;5072268;28;20019;-85
2022/12/20 02:52:31;;;;;;;8.77;2.70;;;11.90;99.90;;;;;;5072785;28;20100;-85
2022/12/20 02:54:58;;;;;;;6.88;2.65;;;12.00;99.90;;;;;;5072464;28;20108;-85
2022/12/20 02:58:04;;;;;;;6.25;2.80;;;12.10;99.90;;;;;;5072628;28;20048;-85
2022/12/20 03:00:36;;;;;;;8.63;3.20;;;12.10;99.90;;;;;;5069143;28;20047;-85
2022/12/20 03:03:22;;;;;;;5.00;2.38;;;12.10;99.90;;;;;;5072649;28;20025;-85
2022/12/20 03:05:51;;;;;;;6.45;3.08;;;12.10;99.90;;;;;;5071751;28;20036;-85
2022/12/20 03:08:16;;;;;;;5.45;2.80;;;12.20;99.90;;;;;;5075073;28;20017;-85
2022/12/20 03:10:43;;;;;;;11.15;2.80;;;12.10;99.90;;;;;;5083444;28;20516;-85
2022/12/20 03:13:09;;;;;;;8.57;3.25;;;12.10;99.90;;;;;;5072135;28;20028;-86
2022/12/20 03:15:35;;;;;;;9.05;2.72;;;12.20;99.90;;;;;;5072687;28;20030;-85
2022/12/20 03:18:01;;;;;;;6.28;3.20;;;12.30;99.90;;;;;;5071810;28;20115;-85
2022/12/20 03:20:27;;;;;;;5.85;2.80;;;12.20;99.90;;;;;;5072090;28;20086;-85
2022/12/20 03:22:53;;;;;;;9.52;3.15;;;12.20;99.90;;;;;;5071497;28;20033;-86
2022/12/20 03:25:19;;;;;;;8.23;3.10;;;12.30;99.90;;;;;;5072041;28;20512;-85
2022/12/20 03:27:45;;;;;;;5.85;2.90;;;12.30;99.90;;;;;;5074432;28;20529;-86
2022/12/20 03:30:11;;;;;;;7.05;3.13;;;12.30;99.90;;;;;;5091971;28;20546;-84
2022/12/20 03:32:37;;;;;;;8.65;2.92;;;12.20;99.90;;;;;;5066850;28;20020;-85
2022/12/20 03:35:03;;;;;;;10.93;3.45;;;12.20;99.90;;;;;;5071788;28;20413;-84
2022/12/20 03:37:29;;;;;;;6.20;3.28;;;12.30;99.90;;;;;;5072065;28;20029;-84
2022/12/20 03:39:54;;;;;;;9.20;3.25;;;12.30;99.90;;;;;;5071785;28;20029;-84
2022/12/20 03:42:20;;;;;;;8.85;2.88;;;12.30;99.90;;;;;;5071395;28;20531;-84
2022/12/20 03:44:46;;;;;;;8.55;2.88;;;12.40;99.90;;;;;;5071820;28;20029;-85
2022/12/20 03:47:12;;;;;;;8.88;2.53;;;12.30;99.90;;;;;;5070975;28;20378;-84
2022/12/20 03:49:38;;;;;;;8.32;2.80;;;12.40;99.90;;;;;;5071530;28;20027;-85
2022/12/20 03:52:03;;;;;;;4.03;2.20;;;12.40;99.90;;;;;;5071739;28;20024;-85
2022/12/20 03:54:29;;;;;;;5.78;2.50;;;12.30;99.90;;;;;;5071962;28;20435;-86
2022/12/20 03:56:55;;;;;;;4.75;2.45;;;12.40;99.90;;;;;;5071322;28;20023;-85
2022/12/20 03:59:20;;;;;;;7.72;3.30;;;12.30;99.90;;;;;;5071061;28;20103;-85
2022/12/20 04:01:46;;;;;;;5.00;2.35;;;12.40;99.90;;;;;;5071004;28;20191;-84
2022/12/20 04:04:14;;;;;;;6.80;2.75;;;12.30;99.90;;;;;;5071176;28;20490;-84
2022/12/20 04:06:40;;;;;;;7.97;2.33;;;12.40;99.90;;;;;;5070766;28;20021;-85
2022/12/20 04:09:05;;;;;;;6.18;2.60;;;12.50;99.90;;;;;;5071523;28;20457;-85
2022/12/20 04:11:31;;;;;;;4.30;2.53;;;12.40;99.90;;;;;;5085218;28;20024;-85
2022/12/20 04:13:57;;;;;;;7.50;2.70;;;12.40;99.90;;;;;;5082449;28;20111;-86
2022/12/20 04:16:27;;;;;;;7.80;2.80;;;12.40;99.90;;;;;;5071216;28;20036;-85
2022/12/20 04:18:53;;;;;;;9.02;3.05;;;12.40;99.90;;;;;;5070516;28;20082;-85
2022/12/20 04:21:27;;;;;;;11.02;2.90;;;12.40;99.90;;;;;;5071419;28;20502;-84
2022/12/20 04:23:52;;;;;;;7.22;3.03;;;12.50;99.90;;;;;;5070790;28;20111;-85
2022/12/20 04:26:18;;;;;;;4.78;2.38;;;12.40;99.90;;;;;;5070529;28;20115;-85
2022/12/20 04:28:44;;;;;;;9.57;3.15;;;12.30;99.90;;;;;;5071043;28;20111;-84
2022/12/20 04:31:10;;;;;;;4.55;2.47;;;12.40;99.90;;;;;;5070537;28;20095;-84
2022/12/20 04:33:36;;;;;;;10.02;3.53;;;12.40;99.90;;;;;;5070696;28;20485;-83
2022/12/20 04:36:02;;;;;;;8.90;2.75;;;12.40;99.90;;;;;;5070878;28;20028;-84
2022/12/20 04:38:28;;;;;;;7.63;2.92;;;12.30;99.90;;;;;;5070883;28;20111;-85
2022/12/20 04:40:55;;;;;;;7.25;2.65;;;12.30;99.90;;;;;;5071039;28;20046;-85
2022/12/20 04:43:22;;;;;;;6.97;2.50;;;12.30;99.90;;;;;;5070648;28;20569;-85
2022/12/20 04:45:49;;;;;;;7.85;2.90;;;12.40;99.90;;;;;;5070547;28;20052;-85
2022/12/20 04:48:16;;;;;;;6.90;2.90;;;12.30;99.90;;;;;;5070953;28;20036;-84
2022/12/20 04:50:41;;;;;;;7.40;2.85;;;12.40;99.90;;;;;;5070345;28;20033;-85
2022/12/20 04:55:54;;;;;;;5.20;2.65;;;12.30;99.90;;;;;;5070948;28;20074;-84
2022/12/20 04:58:20;;;;;;;4.82;2.70;;;12.20;99.90;;;;;;5069534;28;20032;-84
2022/12/20 05:00:46;;;;;;;4.20;2.58;;;12.20;99.90;;;;;;5070439;28;20031;-85
2022/12/20 05:03:12;;;;;;;7.22;2.15;;;12.20;99.90;;;;;;5070426;28;20033;-84
2022/12/20 05:05:37;;;;;;;8.07;3.03;;;12.20;99.90;;;;;;5070561;28;20489;-84
2022/12/20 05:08:03;;;;;;;8.10;2.42;;;12.10;99.90;;;;;;5070316;28;20093;-84
2022/12/20 05:10:29;;;;;;;6.38;2.60;;;12.10;99.90;;;;;;5090488;28;20408;-85
2022/12/20 05:12:55;;;;;;;7.90;2.63;;;12.20;99.90;;;;;;5090586;28;20031;-84
2022/12/20 05:15:20;;;;;;;7.45;2.65;;;12.20;99.90;;;;;;5090233;28;20031;-85
2022/12/20 05:17:46;;;;;;;6.63;2.88;;;12.20;99.90;;;;;;5090677;28;20028;-84
2022/12/20 05:20:12;;;;;;;5.78;2.70;;;12.20;99.90;;;;;;5089889;28;20052;-84
2022/12/20 05:28:06;;;;;;;6.55;3.10;;;12.20;99.90;;;;;;5089851;28;20095;-84
2022/12/20 05:30:32;;;;;;;8.13;2.85;;;12.20;99.90;;;;;;5087121;28;20044;-85
2022/12/20 05:32:57;;;;;;;4.75;2.67;;;12.00;99.90;;;;;;5070211;28;20081;-85
2022/12/20 05:35:23;;;;;;;5.28;2.50;;;12.10;99.90;;;;;;5081997;28;20392;-85
2022/12/20 05:37:49;;;;;;;2.92;1.88;;;12.10;99.90;;;;;;5080728;28;20470;-85
2022/12/20 05:40:15;;;;;;;4.28;2.08;;;12.10;99.90;;;;;;5070262;28;20563;-85
2022/12/20 05:42:40;;;;;;;3.75;2.42;;;12.00;99.90;;;;;;5069903;28;20028;-85
2022/12/20 05:45:06;;;;;;;4.60;2.00;;;11.90;99.90;;;;;;5069885;28;20444;-85
2022/12/20 05:47:32;;;;;;;4.97;2.50;;;11.90;99.90;;;;;;5069527;28;20501;-85
2022/12/20 05:50:02;;;;;;;4.78;2.42;;;11.90;99.90;;;;;;5070193;28;20032;-85
2022/12/20 05:52:28;;;;;;;5.05;2.20;;;12.10;99.90;;;;;;5068000;28;20036;-85
2022/12/20 05:54:54;;;;;;;10.55;3.33;;;12.10;99.90;;;;;;5070180;28;20086;-85
2022/12/20 05:57:20;;;;;;;6.25;2.50;;;12.20;99.90;;;;;;5070407;28;20494;-85
2022/12/20 05:59:46;;;;;;;6.15;2.83;;;12.30;99.90;;;;;;5082554;28;20035;-85
2022/12/20 06:02:11;;;;;;;7.75;2.60;;;12.30;99.90;;;;;;5071661;28;20033;-84
2022/12/20 06:04:37;;;;;;;8.63;2.55;;;12.30;99.90;;;;;;5070078;28;20493;-85
2022/12/20 06:07:04;;;;;;;6.60;2.13;;;12.30;99.90;;;;;;5075597;28;20016;-85
2022/12/20 06:09:30;;;;;;;10.40;2.83;;;12.20;99.90;;;;;;5076478;28;20035;-85
2022/12/20 06:11:56;;;;;;;7.78;2.72;;;12.20;99.90;;;;;;5073457;28;20074;-85
2022/12/20 06:14:22;;;;;;;8.25;2.60;;;12.40;99.90;;;;;;5073496;28;20063;-85
2022/12/20 06:16:48;;;;;;;3.78;2.47;;;12.30;99.90;;;;;;5072914;28;20055;-84
2022/12/20 06:19:14;;;;;;;8.48;2.97;;;12.20;99.90;;;;;;5073733;28;20439;-85
2022/12/20 06:21:40;;;;;;;5.32;2.33;;;12.20;99.90;;;;;;5073496;28;20032;-85
2022/12/20 06:24:06;;;;;;;6.78;2.33;;;12.10;99.90;;;;;;5085178;28;20024;-84
2022/12/20 06:26:35;;;;;;;5.00;2.15;;;12.10;99.90;;;;;;5074671;28;20056;-84
2022/12/20 06:29:09;;;;;;;5.57;2.63;;;12.10;99.90;;;;;;5073602;28;20556;-84
2022/12/20 06:31:35;;;;;;;3.85;2.20;;;12.10;99.90;;;;;;5073139;28;20091;-84
2022/12/20 06:34:01;;;;;;;4.53;1.80;;;12.10;99.90;;;;;;5073554;28;20031;-85
2022/12/20 06:36:26;;;;;;;4.85;2.30;;;12.20;99.90;;;;;;5073010;28;20020;-85
2022/12/20 06:38:52;;;;;;;4.97;2.17;;;12.20;99.90;;;;;;5078803;28;20048;-85
2022/12/20 06:41:21;;;;;;;4.13;2.15;;;12.10;99.90;;;;;;5072961;28;20543;-85
2022/12/20 06:43:46;;;;;;;3.95;2.30;;;12.10;99.90;;;;;;5073578;28;20021;-85
2022/12/20 06:46:12;;;;;;;6.05;2.58;;;12.10;99.90;;;;;;5085621;28;20405;-85
2022/12/20 06:48:38;;;;;;;3.92;2.22;;;12.10;99.90;;;;;;5073227;28;20486;-85
2022/12/20 06:51:03;;;;;;;7.07;2.33;;;12.00;99.90;;;;;;5078143;28;20069;-85
2022/12/20 06:53:29;;;;;;;5.68;2.50;;;12.10;99.90;;;;;;5079696;28;20421;-85
2022/12/20 06:55:55;;;;;;;6.40;2.40;;;12.10;99.90;;;;;;5073084;28;20028;-85
2022/12/20 06:58:21;;;;;;;7.50;2.70;;;12.10;99.90;;;;;;5073024;28;20020;-85
2022/12/20 07:00:47;;;;;;;5.68;2.30;;;12.20;99.90;;;;;;5072690;28;20462;-85
2022/12/20 07:03:13;;;;;;;7.47;2.42;;;12.10;99.90;;;;;;5073043;28;20150;-85
2022/12/20 07:05:39;;;;;;;5.40;2.33;;;12.10;99.90;;;;;;5072813;28;20108;-86
2022/12/20 07:08:05;;;;;;;5.00;2.35;;;12.10;99.90;;;;;;5073450;28;20016;-85
2022/12/20 07:10:36;;;;;;;3.28;2.00;;;12.10;99.90;;;;;;5085435;28;20074;-85
2022/12/20 07:13:02;;;;;;;4.80;2.28;;;12.00;99.90;;;;;;5073733;28;20084;-85
2022/12/20 07:15:28;;;;;;;3.28;2.03;;;12.10;99.90;;;;;;5084338;28;20113;-85
2022/12/20 07:17:53;;;;;;;9.77;2.30;;;12.00;99.90;;;;;;5072646;28;20494;-85
2022/12/20 07:20:19;;;;;;;5.55;2.25;;;12.10;99.90;;;;;;5072077;28;20441;-85
2022/12/20 07:22:47;;;;;;;5.40;2.33;;;12.20;99.90;;;;;;5072141;28;20449;-85
2022/12/20 07:25:12;;;;;;;9.52;2.67;;;12.20;99.90;;;;;;5072518;28;20108;-85
2022/12/20 07:27:38;;;;;;;6.85;2.30;;;12.20;99.90;;;;;;5072092;28;20127;-84
2022/12/20 07:30:04;;;;;;;8.18;2.40;;;12.20;99.90;;;;;;5072532;28;20513;-85
2022/12/20 07:32:31;;;;;;;6.82;2.47;;;12.20;99.90;;;;;;5073841;28;20066;-85
2022/12/20 07:34:56;;;;;;;6.75;3.05;;;12.20;99.90;;;;;;5084020;28;20502;-85
2022/12/20 07:37:22;;;;;;;4.97;2.63;;;12.20;99.90;;;;;;5076588;28;20027;-84
2022/12/20 07:39:47;;;;;;;3.78;2.00;;;12.30;99.90;;;;;;5079901;28;20032;-84
2022/12/20 07:42:13;;;;;;;7.40;2.70;;;12.20;99.90;;;;;;5091025;28;20035;-84
2022/12/20 07:44:39;;;;;;;5.70;2.33;;;12.30;99.90;;;;;;5072034;28;20060;-86
2022/12/20 07:47:05;;;;;;;9.93;2.80;;;12.30;99.90;;;;;;5072090;28;20047;-85
2022/12/20 07:49:30;;;;;;;5.78;2.30;;;12.30;99.90;;;;;;5071947;28;20025;-85
2022/12/20 07:51:58;;;;;;;7.03;2.80;;;12.30;99.90;;;;;;5087500;28;20570;-85
2022/12/20 07:54:34;;;;;;;7.15;2.38;;;12.30;99.90;;;;;;5071762;28;20028;-85
2022/12/20 07:57:11;;;;;;;7.05;2.92;;;12.40;99.90;;;;;;5071856;28;20557;-85
2022/12/20 07:59:42;;;;;;;5.63;2.25;;;12.40;99.90;;;;;;5070480;28;20048;-85
2022/12/20 08:02:13;;;;;;;6.80;2.88;;;12.40;99.90;;;;;;5072404;28;20020;-84
2022/12/20 08:04:39;;;;;;;5.75;2.40;;;12.30;99.90;;;;;;5064266;28;20031;-86
2022/12/20 08:07:07;;;;;;;4.88;2.30;;;12.40;99.90;;;;;;5069171;28;20077;-86
2022/12/20 08:09:37;;;;;;;9.52;2.85;;;12.50;99.90;;;;;;5069010;28;20020;-85
2022/12/20 08:12:03;;;;;;;5.32;2.33;;;12.50;99.90;;;;;;5069664;28;20032;-86
2022/12/20 08:14:30;;;;;;;5.82;2.30;;;12.40;99.90;;;;;;5072895;28;20065;-87
2022/12/20 08:16:56;;;;;;;3.55;1.75;;;12.40;99.90;;;;;;5070596;28;20031;-85
2022/12/20 08:19:22;;;;;;;8.43;2.45;;;12.40;99.90;;;;;;5073911;28;20028;-86
2022/12/20 08:21:47;;;;;;;5.00;2.88;;;12.40;99.90;;;;;;5070281;28;20592;-86
2022/12/20 08:24:13;;;;;;;5.05;2.67;;;12.50;99.90;;;;;;5069310;28;20398;-86
2022/12/20 08:26:40;;;;;;;4.65;2.55;;;12.50;99.90;;;;;;5071412;28;20053;-86
2022/12/20 08:29:06;;;;;;;6.88;2.53;;;12.50;99.90;;;;;;5069817;28;20132;-86
2022/12/20 08:31:32;;;;;;;4.88;2.58;;;12.50;99.90;;;;;;5069604;28;20036;-86
2022/12/20 08:33:58;;;;;;;6.20;2.58;;;12.50;99.90;;;;;;5074647;28;20024;-88
2022/12/20 08:36:23;;;;;;;6.35;3.03;;;12.60;99.90;;;;;;5088471;28;20509;-86
2022/12/20 08:38:49;;;;;;;5.35;2.05;;;12.60;99.90;;;;;;5071670;28;20456;-87
2022/12/20 08:41:16;;;;;;;3.75;2.53;;;12.60;99.90;;;;;;5069543;28;20032;-87
2022/12/20 08:43:42;;;;;;;4.90;2.22;;;12.60;99.90;;;;;;5069523;28;20056;-85
2022/12/20 08:46:10;;;;;;;5.15;2.45;;;12.60;99.90;;;;;;5068698;28;20529;-85
2022/12/20 08:48:36;;;;;;;5.03;2.70;;;12.60;99.90;;;;;;5082075;28;20032;-86
2022/12/20 08:51:05;;;;;;;6.72;2.63;;;12.70;99.90;;;;;;5075861;28;20382;-86
2022/12/20 08:53:31;;;;;;;4.70;2.05;;;12.70;99.90;;;;;;5070565;28;20036;-86
2022/12/20 08:56:09;;;;;;;3.80;1.92;;;12.70;99.90;;;;;;5069181;28;20024;-86
2022/12/20 08:58:35;;;;;;;6.68;2.60;;;12.70;99.90;;;;;;5069281;28;20107;-87
2022/12/20 09:01:04;;;;;;;4.05;2.10;;;12.80;99.90;;;;;;5069852;28;20036;-87
2022/12/20 09:03:31;;;;;;;8.02;2.30;;;12.80;99.90;;;;;;5069136;28;20032;-87
2022/12/20 09:05:58;;;;;;;3.20;2.20;;;12.80;99.90;;;;;;5068242;28;20020;-86
2022/12/20 09:08:24;;;;;;;3.95;2.15;;;12.90;99.90;;;;;;5069616;28;20078;-87
2022/12/20 09:10:50;;;;;;;6.80;2.40;;;12.90;99.90;;;;;;5069496;28;20139;-87
2022/12/20 09:13:16;;;;;;;6.93;2.20;;;12.90;99.90;;;;;;5067809;28;20033;-85
2022/12/20 09:15:43;;;;;;;6.13;2.30;;;13.00;99.90;;;;;;5069614;28;20032;-85
2022/12/20 09:18:09;;;;;;;4.82;2.10;;;13.00;99.90;;;;;;5069052;28;20086;-85
2022/12/20 09:20:40;;;;;;;5.40;2.78;;;13.10;99.90;;;;;;5068903;28;20028;-85
2022/12/20 09:23:06;;;;;;;5.50;2.17;;;13.10;99.90;;;;;;5073155;28;20029;-85
2022/12/20 09:25:32;;;;;;;3.05;1.67;;;13.10;99.90;;;;;;5076127;28;20032;-85
2022/12/20 09:27:58;;;;;;;6.53;2.83;;;13.10;99.90;;;;;;5067946;28;20040;-85
2022/12/20 09:30:24;;;;;;;6.13;2.63;;;13.10;99.90;;;;;;5069397;28;20109;-85
2022/12/20 09:32:50;;;;;;;4.55;2.25;;;13.10;99.90;;;;;;5071757;28;20028;-86
2022/12/20 09:35:15;;;;;;;4.55;2.38;;;13.20;99.90;;;;;;5077374;28;20034;-85
2022/12/20 09:37:41;;;;;;;6.05;2.70;;;13.20;99.90;;;;;;5072266;28;20030;-85
2022/12/20 09:40:16;;;;;;;7.22;3.22;;;13.20;99.90;;;;;;5079747;28;20514;-86
2022/12/20 09:42:43;;;;;;;5.05;3.03;;;13.20;99.90;;;;;;5068795;28;20049;-86
2022/12/20 09:45:16;;;;;;;5.53;2.40;;;13.30;99.90;;;;;;5071103;28;20107;-87
2022/12/20 09:47:42;;;;;;;5.68;2.40;;;13.30;99.90;;;;;;5069337;28;20264;-87
2022/12/20 09:50:16;;;;;;;7.88;3.40;;;13.30;99.90;;;;;;5077328;28;20517;-86
2022/12/20 09:52:56;;;;;;;5.13;2.33;;;13.30;99.90;;;;;;5065273;28;20051;-87
2022/12/20 09:55:33;;;;;;;5.75;2.40;;;13.30;99.90;;;;;;5079175;28;20020;-87
2022/12/20 09:58:40;;;;;;;5.57;2.42;;;13.30;99.90;;;;;;5078641;28;20048;-87
2022/12/20 10:01:23;;;;;;;9.95;2.92;;;13.40;99.90;;;;;;5068824;28;20055;-87
2022/12/20 10:03:50;;;;;;;4.72;2.45;;;13.40;99.90;;;;;;5075552;28;20101;-88
2022/12/20 10:06:34;;;;;;;7.32;2.45;;;13.40;99.90;;;;;;5073382;28;20050;-88
2022/12/20 10:09:03;;;;;;;5.43;2.80;;;13.50;99.90;;;;;;5079134;28;20135;-86
2022/12/20 10:11:42;;;;;;;6.50;2.65;;;13.50;99.90;;;;;;5071989;28;20028;-86
2022/12/20 10:14:49;;;;;;;6.65;2.70;;;13.50;99.90;;;;;;5072003;28;20047;-87
2022/12/20 10:17:58;;;;;;;6.65;2.83;;;13.60;99.90;;;;;;5060187;28;20024;-87
2022/12/20 10:20:39;;;;;;;9.57;3.85;;;13.60;99.90;;;;;;5063571;28;20048;-84
2022/12/20 10:23:24;;;;;;;10.57;3.20;;;13.60;99.90;;;;;;5071667;28;20029;-84
2022/12/20 10:25:55;;;;;;;5.43;2.85;;;13.60;99.90;;;;;;5083844;28;20560;-86
2022/12/20 10:28:29;;;;;;;6.27;2.70;;;13.60;99.90;;;;;;5071201;28;20079;-88
2022/12/20 10:31:02;;;;;;;6.75;2.40;;;13.60;99.90;;;;;;5082046;28;20016;-87
2022/12/20 10:33:30;;;;;;;5.97;2.40;;;13.70;99.90;;;;;;5078710;28;20085;-87
2022/12/20 10:36:36;;;;;;;7.28;2.50;;;13.60;99.90;;;;;;5077878;28;20039;-89
2022/12/20 10:39:05;;;;;;;5.22;2.60;;;13.70;99.90;;;;;;5074553;28;20094;-87
2022/12/20 10:41:40;;;;;;;4.75;2.40;;;13.70;99.90;;;;;;5086354;28;20028;-88
2022/12/20 10:44:17;;;;;;;8.13;3.08;;;13.70;99.90;;;;;;5094444;28;20078;-88
2022/12/20 10:46:50;;;;;;;5.13;2.55;;;13.70;99.90;;;;;;5079493;28;20028;-89
2022/12/20 10:49:35;;;;;;;4.88;2.63;;;13.70;99.90;;;;;;5078752;28;20043;-89
2022/12/20 10:52:21;;;;;;;9.38;2.63;;;13.70;99.90;;;;;;5075489;28;20037;-89
2022/12/20 10:54:47;;;;;;;8.63;2.38;;;13.70;99.90;;;;;;5067798;28;20056;-88
2022/12/20 10:57:26;;;;;;;5.20;2.45;;;13.80;99.90;;;;;;5077583;28;20020;-89
2022/12/20 11:00:07;;;;;;;5.75;2.38;;;13.80;99.90;;;;;;5085394;28;20143;-88
2022/12/20 11:02:39;;;;;;;7.28;2.63;;;13.90;99.90;;;;;;5065539;28;20024;-89
2022/12/20 11:05:10;;;;;;;;;;;13.90;99.90;;;;;;5070999;28;20119;-89
2022/12/20 11:07:50;;;;;;;8.23;2.70;;;13.80;99.90;;;;;;5080602;28;19911;-90
2022/12/20 11:10:22;;;;;;;7.22;3.05;;;13.80;99.90;;;;;;5068286;28;20073;-88
2022/12/20 11:12:55;;;;;;;9.10;2.95;;;13.90;99.90;;;;;;5072805;28;20027;-88
2022/12/20 11:15:26;;;;;;;9.05;3.28;;;13.90;99.90;;;;;;5069403;28;20032;-88
2022/12/20 11:17:56;;;;;;;;;;;13.90;99.90;;;;;;5071056;28;20032;-89
2022/12/20 11:20:48;;;;;;;6.75;3.17;;;13.90;99.90;;;;;;5069155;28;20368;-88
2022/12/20 11:23:38;;;;;;;4.82;2.53;;;13.90;99.90;;;;;;5067203;28;20095;-87
2022/12/20 11:26:35;;;;;;;5.88;2.97;;;13.90;99.90;;;;;;5070293;28;20032;-89
2022/12/20 11:29:33;;;;;;;9.85;3.45;;;13.90;99.90;;;;;;5082024;28;20032;-88
2022/12/20 11:32:22;;;;;;;11.20;3.38;;;14.00;99.90;;;;;;5069955;28;20026;-90
2022/12/20 11:34:53;;;;;;;10.77;3.78;;;14.00;99.90;;;;;;5077198;28;20044;-89
2022/12/20 11:37:50;;;;;;;9.95;3.25;;;14.00;99.90;;;;;;5070341;28;20104;-88
2022/12/20 11:40:27;;;;;;;8.82;2.72;;;14.00;99.90;;;;;;5069837;28;20100;-90
2022/12/20 11:43:15;;;;;;;6.43;2.58;;;14.10;99.90;;;;;;5089358;28;20032;-90
2022/12/20 11:46:05;;;;;;;6.95;2.88;;;14.00;99.90;;;;;;5081453;28;20033;-91
2022/12/20 11:48:45;;;;;;;14.80;3.10;;;14.10;99.90;;;;;;5082295;28;20020;-90
2022/12/20 11:51:37;;;;;;;10.90;4.05;;;14.10;99.90;;;;;;5078815;28;20032;-89
2022/12/20 11:54:22;;;;;;;9.07;2.72;;;14.10;99.90;;;;;;5047895;28;20108;-90
2022/12/20 11:56:51;;;;;;;7.13;2.90;;;14.20;99.90;;;;;;5069731;28;20025;-89
2022/12/20 11:59:44;;;;;;;8.07;2.90;;;14.30;99.90;;;;;;5069811;28;20032;-91
2022/12/20 12:02:34;;;;;;;4.55;2.85;;;14.40;99.90;;;;;;5069149;28;20036;-89
2022/12/20 12:05:13;;;;;;;10.18;3.60;;;14.40;99.90;;;;;;5059739;28;20187;-89
2022/12/20 12:07:41;;;;;;;7.13;3.15;;;14.50;99.90;;;;;;5070354;28;20036;-90
2022/12/20 12:10:17;;;;;;;11.20;3.58;;;14.50;99.90;;;;;;5067776;28;20032;-90
2022/12/20 12:12:51;;;;;;;10.07;3.72;;;14.50;99.90;;;;;;5069416;28;20589;-90
2022/12/20 12:15:26;;;;;;;11.10;4.05;;;14.40;99.90;;;;;;5071972;28;20035;-89
2022/12/20 12:18:04;;;;;;;6.47;3.05;;;14.30;99.90;;;;;;5070334;28;20028;-90
2022/12/20 12:21:12;;;;;;;6.38;2.90;;;14.30;99.90;;;;;;5075434;28;20063;-91
2022/12/20 12:23:53;;;;;;;8.18;2.60;;;14.40;99.90;;;;;;5058202;28;20056;-90
2022/12/20 12:26:26;;;;;;;7.10;2.90;;;14.20;99.90;;;;;;5076942;28;20036;-90
2022/12/20 12:29:01;;;;;;;10.00;3.28;;;14.30;99.90;;;;;;5069930;28;20043;-90
2022/12/20 12:31:38;;;;;;;5.55;2.83;;;14.30;99.90;;;;;;5069909;28;20075;-90
2022/12/20 12:34:08;;;;;;;8.98;3.38;;;14.20;99.90;;;;;;5069562;28;20028;-92
2022/12/20 12:36:36;;;;;;;6.70;2.90;;;14.30;99.90;;;;;;5070084;28;20178;-92
2022/12/20 12:39:26;;;;;;;9.05;3.40;;;14.20;99.90;;;;;;5071145;28;20079;-90
2022/12/20 12:42:31;;;;;;;7.97;2.88;;;14.20;99.90;;;;;;5058850;28;20146;-90
2022/12/20 12:45:04;;;;;;;9.75;2.55;;;14.30;99.90;;;;;;5065766;28;20090;-90
2022/12/20 12:47:52;;;;;;;8.80;2.80;;;14.20;99.90;;;;;;5068623;28;20028;-90
2022/12/20 12:50:31;;;;;;;6.75;2.70;;;14.30;99.90;;;;;;5068084;28;20029;-88
2022/12/20 12:53:27;;;;;;;10.02;3.03;;;14.20;99.90;;;;;;5068660;28;20054;-89
2022/12/20 12:55:53;;;;;;;9.73;3.05;;;14.30;99.90;;;;;;4999260;28;20436;-89
2022/12/20 12:58:22;;;;;;;6.88;2.80;;;14.30;99.90;;;;;;4998027;28;20042;-91
2022/12/20 13:01:03;;;;;;;5.78;2.45;;;14.20;99.90;;;;;;5008198;28;20087;-91
2022/12/20 13:03:44;;;;;;;;;;;14.30;99.90;;;;;;4999496;28;20030;-89
2022/12/20 13:06:22;;;;;;;8.50;3.00;;;14.20;99.90;;;;;;5008803;28;19913;-90
2022/12/20 13:08:55;;;;;;;7.13;2.95;;;14.30;99.90;;;;;;4997815;28;20040;-90
2022/12/20 13:11:47;;;;;;;5.65;2.63;;;14.20;99.90;;;;;;5002536;28;20025;-89
2022/12/20 13:14:16;;;;;;;6.53;2.75;;;14.30;99.90;;;;;;4993470;28;20037;-89
2022/12/20 13:16:49;;;;;;;6.47;3.08;;;14.20;99.90;;;;;;5010922;28;20037;-89
2022/12/20 13:19:16;;;;;;;4.40;2.55;;;14.20;99.90;;;;;;4995162;28;20034;-89